Terminal Aerodrome Forecast
Issued by NWS

Home | Current Version | Previous Version | Text Only | Print | Product List | Glossary Off
Versions: 1 2 3 4 5 6 7 8 9 10 11 12 13 14 15 16 17 18 19 20 21 22 23 24 25 26 27 28 29 30 31 32 33 34 35 36

000
FTUS43 KLOT 180300 AAD
TAFMDW
TAF AMD
KMDW 180301Z 1803/1824 04009KT 4SM BR OVC005
     FM180400 07003KT 2SM BR OVC003
     FM181400 11004KT 6SM BR BKN007
     FM181600 16006KT P6SM BKN020
     FM182000 09009KT P6SM SCT040 BKN200=

USA.gov is the U.S. government's official web portal to all federal, state and local government web resources and services.